Time;durP1;ratioP1;P1;durP2;ratioP2;P2;SDS_P1;SDS_P2;PMS_P1;PMS_P2;Temp;Humidity;BMP_temperature;BMP_pressure;BME280_temperature;BME280_humidity;BME280_pressure;Samples;Min_cycle;Max_cycle;Signal;HPM_P1;HPM_P2
2021/05/26 00:01:03;;;;;;;2.53;0.65;;;11.20;99.90;;;;;;5032655;28;20065;-64
2021/05/26 00:03:29;;;;;;;2.53;0.82;;;11.20;99.90;;;;;;5033679;28;20045;-64
2021/05/26 00:05:55;;;;;;;5.40;0.90;;;11.20;99.90;;;;;;5015906;28;20117;-64
2021/05/26 00:08:29;;;;;;;3.20;0.68;;;11.10;99.90;;;;;;5033230;28;20125;-65
2021/05/26 00:10:56;;;;;;;8.57;2.58;;;11.10;99.90;;;;;;5033565;28;20034;-64
2021/05/26 00:13:22;;;;;;;4.30;1.77;;;11.10;99.90;;;;;;5032263;28;20040;-64
2021/05/26 00:15:49;;;;;;;4.38;1.90;;;11.00;99.90;;;;;;5032419;28;20021;-64
2021/05/26 00:18:16;;;;;;;3.38;1.13;;;11.00;99.90;;;;;;5032259;28;20041;-65
2021/05/26 00:20:43;;;;;;;2.85;1.20;;;11.00;99.90;;;;;;5032107;28;20469;-65
2021/05/26 00:23:09;;;;;;;4.03;1.00;;;11.00;99.90;;;;;;5032280;28;20041;-64
2021/05/26 00:25:35;;;;;;;2.13;0.77;;;10.90;99.90;;;;;;5033097;28;20056;-64
2021/05/26 00:28:01;;;;;;;3.38;1.23;;;10.80;99.90;;;;;;5032894;28;20053;-64
2021/05/26 00:30:30;;;;;;;2.88;1.02;;;10.80;99.90;;;;;;5031981;28;20033;-65
2021/05/26 00:32:57;;;;;;;3.67;1.17;;;10.90;99.90;;;;;;5031025;28;20508;-64
2021/05/26 00:35:23;;;;;;;4.32;1.10;;;10.80;99.90;;;;;;5031761;28;20029;-65
2021/05/26 00:37:49;;;;;;;3.97;1.00;;;10.70;99.90;;;;;;5032752;28;20405;-64
2021/05/26 00:40:16;;;;;;;5.15;1.20;;;10.60;99.90;;;;;;5033113;28;20036;-64
2021/05/26 00:42:42;;;;;;;2.58;1.23;;;10.60;99.90;;;;;;5031688;28;20041;-64
2021/05/26 00:45:09;;;;;;;4.40;1.30;;;10.70;99.90;;;;;;5032900;28;20520;-65
2021/05/26 00:47:46;;;;;;;1.83;0.90;;;10.70;99.90;;;;;;5032783;28;20086;-65
2021/05/26 00:50:21;;;;;;;5.35;1.83;;;10.70;99.90;;;;;;5032828;28;20045;-65
2021/05/26 00:52:48;;;;;;;4.00;1.20;;;10.70;99.90;;;;;;5032972;28;20038;-65
2021/05/26 00:55:17;;;;;;;4.40;1.40;;;10.70;99.90;;;;;;5031488;28;20063;-65
2021/05/26 00:57:43;;;;;;;2.30;1.10;;;10.70;99.90;;;;;;5032787;28;20033;-65
2021/05/26 01:00:13;;;;;;;2.97;1.05;;;10.70;99.90;;;;;;5032566;28;20053;-65
2021/05/26 01:02:39;;;;;;;3.78;1.02;;;10.70;99.90;;;;;;5030895;28;20083;-65
2021/05/26 01:05:07;;;;;;;2.20;1.13;;;10.70;99.90;;;;;;5032745;28;20068;-65
2021/05/26 01:07:33;;;;;;;6.93;1.75;;;10.70;99.90;;;;;;5031434;28;20038;-65
2021/05/26 01:10:00;;;;;;;4.55;1.48;;;10.80;99.90;;;;;;5032682;28;20025;-65
2021/05/26 01:12:25;;;;;;;5.25;1.58;;;10.90;99.90;;;;;;5032221;28;20037;-65
2021/05/26 01:14:51;;;;;;;10.75;1.30;;;11.00;99.90;;;;;;5031296;28;20029;-65
2021/05/26 01:17:17;;;;;;;5.20;1.25;;;10.90;99.90;;;;;;5032228;28;20029;-64
2021/05/26 01:19:43;;;;;;;4.55;1.13;;;10.90;99.90;;;;;;5032562;28;20083;-65
2021/05/26 01:22:10;;;;;;;6.97;1.15;;;11.00;99.90;;;;;;5031219;28;20033;-64
2021/05/26 01:24:36;;;;;;;3.38;1.05;;;11.00;99.90;;;;;;5031103;28;20069;-64
2021/05/26 01:27:03;;;;;;;2.10;0.90;;;11.00;99.90;;;;;;5030671;28;20042;-65
2021/05/26 01:29:30;;;;;;;4.88;1.20;;;11.00;99.90;;;;;;5030670;28;20044;-65
2021/05/26 01:31:57;;;;;;;5.55;0.90;;;10.80;99.90;;;;;;5032161;28;20103;-65
2021/05/26 01:34:23;;;;;;;2.95;1.27;;;10.80;99.90;;;;;;5030874;28;20076;-65
2021/05/26 01:36:49;;;;;;;3.13;1.30;;;10.70;99.90;;;;;;5032206;28;20524;-65
2021/05/26 01:39:17;;;;;;;4.78;1.23;;;10.60;99.90;;;;;;5032102;28;20038;-65
2021/05/26 01:41:44;;;;;;;2.92;1.10;;;10.70;99.90;;;;;;5030857;28;20178;-65
2021/05/26 01:44:10;;;;;;;4.65;1.00;;;10.70;99.90;;;;;;5033937;28;20025;-65
2021/05/26 01:46:40;;;;;;;3.03;1.05;;;10.60;99.90;;;;;;5036129;28;20076;-65
2021/05/26 01:49:07;;;;;;;5.78;1.45;;;10.70;99.90;;;;;;5036363;28;20068;-65
2021/05/26 01:51:35;;;;;;;2.90;1.20;;;10.70;99.90;;;;;;5036184;28;20060;-65
2021/05/26 01:54:03;;;;;;;4.45;1.20;;;10.70;99.90;;;;;;5034674;28;20030;-65
2021/05/26 01:56:31;;;;;;;7.10;1.48;;;10.80;99.90;;;;;;5034185;28;20096;-65
2021/05/26 01:58:57;;;;;;;3.47;1.67;;;10.50;99.90;;;;;;5033098;28;20029;-65
2021/05/26 02:01:25;;;;;;;5.55;1.60;;;10.40;99.90;;;;;;5033053;28;20545;-65
2021/05/26 02:03:52;;;;;;;6.93;2.60;;;10.40;99.90;;;;;;5032932;28;20084;-64
2021/05/26 02:06:21;;;;;;;6.63;2.30;;;10.30;99.90;;;;;;5034594;28;20385;-65
2021/05/26 02:08:51;;;;;;;5.28;1.60;;;10.30;99.90;;;;;;5035396;28;20038;-65
2021/05/26 02:14:08;;;;;;;4.50;1.38;;;10.60;99.90;;;;;;5035992;28;20029;-65
2021/05/26 02:16:36;;;;;;;4.03;1.48;;;10.70;99.90;;;;;;5035820;28;20033;-65
2021/05/26 02:19:02;;;;;;;7.55;1.85;;;10.60;99.90;;;;;;5035543;28;20084;-65
2021/05/26 02:21:28;;;;;;;8.70;2.03;;;10.40;99.90;;;;;;5034293;28;20021;-65
2021/05/26 02:23:53;;;;;;;2.53;1.52;;;10.30;99.90;;;;;;5035394;28;20392;-65
2021/05/26 02:26:20;;;;;;;6.38;1.65;;;10.20;99.90;;;;;;5035712;28;20529;-65
2021/05/26 02:28:45;;;;;;;3.08;1.52;;;10.20;99.90;;;;;;5035001;28;20393;-65
2021/05/26 02:31:11;;;;;;;5.40;1.60;;;10.20;99.90;;;;;;5034348;28;20026;-65
2021/05/26 02:33:38;;;;;;;3.28;1.50;;;10.00;99.90;;;;;;5034969;28;20041;-65
2021/05/26 02:36:05;;;;;;;2.45;1.60;;;10.00;99.90;;;;;;5035308;28;20537;-65
2021/05/26 02:38:32;;;;;;;5.93;2.85;;;10.00;99.90;;;;;;5035209;28;20034;-65
2021/05/26 02:40:58;;;;;;;3.33;1.95;;;9.90;99.90;;;;;;5034003;28;20444;-65
2021/05/26 02:43:24;;;;;;;3.47;1.45;;;10.00;99.90;;;;;;5035146;28;20060;-65
2021/05/26 02:45:50;;;;;;;8.75;2.05;;;9.90;99.90;;;;;;5034018;28;20116;-65
2021/05/26 02:48:15;;;;;;;3.55;1.30;;;9.90;99.90;;;;;;5035087;28;20038;-65
2021/05/26 02:50:41;;;;;;;4.00;1.40;;;9.90;99.90;;;;;;5035097;28;20028;-65
2021/05/26 02:53:07;;;;;;;4.28;1.20;;;10.00;99.90;;;;;;5033927;28;20038;-65
2021/05/26 02:55:33;;;;;;;3.78;1.23;;;10.00;99.90;;;;;;5034018;28;20036;-65
2021/05/26 02:57:59;;;;;;;6.93;1.52;;;10.00;99.90;;;;;;5034763;28;20128;-65
2021/05/26 03:00:26;;;;;;;9.70;1.95;;;10.00;99.90;;;;;;5033603;28;20122;-65
2021/05/26 03:02:52;;;;;;;5.65;1.50;;;10.00;99.90;;;;;;5033874;28;20049;-65
2021/05/26 03:05:20;;;;;;;2.33;1.20;;;10.00;99.90;;;;;;5034848;28;20112;-65
2021/05/26 03:07:46;;;;;;;5.28;1.42;;;10.00;99.90;;;;;;5034909;28;20108;-65
2021/05/26 03:10:18;;;;;;;3.30;1.20;;;10.10;99.90;;;;;;5033654;28;20030;-65
2021/05/26 03:12:44;;;;;;;4.95;1.42;;;10.00;99.90;;;;;;5033460;28;20485;-65
2021/05/26 03:15:16;;;;;;;5.85;1.35;;;10.00;99.90;;;;;;5034464;28;20068;-65
2021/05/26 03:17:43;;;;;;;3.88;1.52;;;9.90;99.90;;;;;;5034467;28;20080;-65
2021/05/26 03:20:13;;;;;;;6.40;1.88;;;10.00;99.90;;;;;;5033163;28;20461;-65
2021/05/26 03:22:40;;;;;;;6.55;1.60;;;10.00;99.90;;;;;;5034334;28;20029;-65
2021/05/26 03:25:07;;;;;;;4.93;1.45;;;10.00;99.90;;;;;;5032910;28;20040;-65
2021/05/26 03:27:37;;;;;;;6.78;1.20;;;10.10;99.90;;;;;;5032769;28;20124;-65
2021/05/26 03:30:10;;;;;;;10.40;1.60;;;10.10;99.90;;;;;;5033033;28;20041;-65
2021/05/26 03:32:38;;;;;;;3.92;1.55;;;10.10;99.90;;;;;;5034252;28;20029;-65
2021/05/26 03:35:05;;;;;;;3.25;1.30;;;10.10;99.90;;;;;;5033019;28;20033;-65
2021/05/26 03:37:31;;;;;;;4.57;1.20;;;10.10;99.90;;;;;;5034132;28;20087;-64
2021/05/26 03:39:57;;;;;;;4.47;1.45;;;10.10;99.90;;;;;;5032644;28;20037;-64
2021/05/26 03:42:22;;;;;;;4.18;1.38;;;10.10;99.90;;;;;;5032771;28;20117;-64
2021/05/26 03:44:48;;;;;;;4.97;1.55;;;10.10;99.90;;;;;;5033819;28;20436;-64
2021/05/26 03:47:14;;;;;;;6.82;1.42;;;10.10;99.90;;;;;;5032426;28;20084;-64
2021/05/26 03:49:40;;;;;;;3.63;1.45;;;10.20;99.90;;;;;;5032655;28;20040;-64
2021/05/26 03:52:06;;;;;;;4.50;1.50;;;10.20;99.90;;;;;;5032438;28;20401;-64
2021/05/26 03:54:34;;;;;;;5.80;1.40;;;10.20;99.90;;;;;;5032542;28;20466;-64
2021/05/26 03:57:04;;;;;;;5.38;1.50;;;10.10;99.90;;;;;;5032687;28;20577;-66
2021/05/26 03:59:31;;;;;;;4.80;1.40;;;10.20;99.90;;;;;;5045358;28;20047;-64
2021/05/26 04:01:57;;;;;;;8.10;1.77;;;10.50;99.90;;;;;;5053447;28;20408;-64
2021/05/26 04:04:23;;;;;;;5.97;1.42;;;10.50;99.90;;;;;;5040945;28;20033;-62
2021/05/26 04:06:49;;;;;;;5.90;1.83;;;10.50;99.90;;;;;;5032489;28;20037;-67
2021/05/26 04:09:14;;;;;;;7.13;1.77;;;10.50;99.90;;;;;;5031236;28;20429;-66
2021/05/26 04:11:41;;;;;;;7.68;1.90;;;10.50;99.90;;;;;;5033321;28;20048;-66
2021/05/26 04:14:07;;;;;;;3.97;1.67;;;10.40;99.90;;;;;;5033448;28;20040;-67
2021/05/26 04:16:33;;;;;;;9.30;1.63;;;10.40;99.90;;;;;;5033391;28;20033;-67
2021/05/26 04:18:59;;;;;;;7.50;2.38;;;10.40;99.90;;;;;;5033778;28;20025;-67
2021/05/26 04:21:25;;;;;;;4.63;2.30;;;10.40;99.90;;;;;;5033483;28;20033;-67
2021/05/26 04:23:51;;;;;;;7.72;1.85;;;10.50;99.90;;;;;;5033337;28;20152;-68
2021/05/26 04:26:16;;;;;;;6.60;3.00;;;10.50;99.90;;;;;;5031778;28;20045;-70
2021/05/26 04:28:45;;;;;;;4.50;1.38;;;10.50;99.90;;;;;;5043564;28;20060;-68
2021/05/26 04:31:13;;;;;;;4.55;1.35;;;10.60;99.90;;;;;;5052924;28;20432;-70
2021/05/26 04:33:40;;;;;;;6.32;1.52;;;10.60;99.90;;;;;;5052713;28;20033;-69
2021/05/26 04:36:07;;;;;;;4.15;1.45;;;10.60;99.90;;;;;;5051488;28;20039;-68
2021/05/26 04:38:34;;;;;;;5.80;1.75;;;10.60;99.90;;;;;;5051909;28;20485;-68
2021/05/26 04:41:01;;;;;;;5.72;2.00;;;10.60;99.90;;;;;;5051377;28;20037;-68
2021/05/26 04:43:28;;;;;;;3.90;1.33;;;10.60;99.90;;;;;;5051432;28;20048;-68
2021/05/26 04:45:53;;;;;;;6.20;2.00;;;10.70;99.90;;;;;;5068229;28;20033;-69
2021/05/26 04:48:19;;;;;;;6.57;1.80;;;10.50;99.90;;;;;;5052721;28;20380;-69
2021/05/26 04:50:45;;;;;;;4.78;2.05;;;10.40;99.90;;;;;;5052705;28;20033;-68
2021/05/26 04:53:11;;;;;;;6.20;1.98;;;10.40;99.90;;;;;;5052995;28;20025;-69
2021/05/26 04:55:37;;;;;;;4.13;2.17;;;10.30;99.90;;;;;;5051178;28;20408;-68
2021/05/26 04:58:07;;;;;;;6.97;2.22;;;10.40;99.90;;;;;;5045868;28;20109;-69
2021/05/26 05:00:34;;;;;;;9.07;2.25;;;10.30;99.90;;;;;;5031169;28;20033;-69
2021/05/26 05:03:00;;;;;;;6.50;1.70;;;10.30;99.90;;;;;;5032628;28;20041;-69
2021/05/26 05:05:32;;;;;;;8.48;2.25;;;10.30;99.90;;;;;;5032455;28;20385;-70
2021/05/26 05:08:05;;;;;;;7.30;2.30;;;10.30;99.90;;;;;;5031054;28;20465;-69
2021/05/26 05:10:32;;;;;;;5.38;1.92;;;10.30;99.90;;;;;;5032187;28;20028;-69
2021/05/26 05:12:58;;;;;;;6.97;2.20;;;10.30;99.90;;;;;;5031233;28;20504;-69
2021/05/26 05:15:24;;;;;;;8.35;2.50;;;10.30;99.90;;;;;;5032492;28;20037;-69
2021/05/26 05:17:50;;;;;;;5.40;1.67;;;10.40;99.90;;;;;;5032131;28;20037;-69
2021/05/26 05:20:20;;;;;;;6.40;2.72;;;10.40;99.90;;;;;;5031086;28;20048;-69
2021/05/26 05:22:50;;;;;;;5.13;1.90;;;10.50;99.90;;;;;;5031833;28;20037;-73
2021/05/26 05:25:16;;;;;;;4.78;1.75;;;10.60;99.90;;;;;;5030840;28;20064;-66
2021/05/26 05:27:43;;;;;;;4.72;2.03;;;10.60;99.90;;;;;;5033278;28;20452;-68
2021/05/26 05:30:11;;;;;;;5.88;1.92;;;10.60;99.90;;;;;;5052095;28;20068;-69
2021/05/26 05:32:37;;;;;;;5.70;2.00;;;10.80;99.90;;;;;;5051659;28;20039;-69
2021/05/26 05:35:04;;;;;;;5.55;2.13;;;10.80;99.90;;;;;;5051875;28;20037;-68
2021/05/26 05:37:30;;;;;;;12.45;3.33;;;10.90;99.90;;;;;;5051779;28;20033;-68
2021/05/26 05:39:56;;;;;;;5.97;2.03;;;10.80;99.90;;;;;;5050827;28;20336;-69
2021/05/26 05:42:21;;;;;;;4.03;1.80;;;10.80;99.90;;;;;;5038069;28;20048;-69
2021/05/26 05:44:47;;;;;;;3.85;1.80;;;10.90;99.90;;;;;;5030179;28;20068;-69
2021/05/26 05:47:13;;;;;;;5.68;2.00;;;10.80;99.90;;;;;;5030489;28;20045;-69
2021/05/26 05:49:39;;;;;;;10.60;1.98;;;10.90;99.90;;;;;;5030347;28;20033;-69
2021/05/26 05:52:08;;;;;;;4.82;1.90;;;10.90;99.90;;;;;;5030858;28;20052;-69
2021/05/26 05:54:35;;;;;;;6.85;2.63;;;10.90;99.90;;;;;;5031717;28;20033;-68
2021/05/26 05:57:02;;;;;;;8.68;1.80;;;10.90;99.90;;;;;;5030356;28;20029;-68
2021/05/26 05:59:28;;;;;;;3.97;1.30;;;10.90;99.90;;;;;;5049009;28;20075;-68
2021/05/26 06:01:53;;;;;;;5.40;1.70;;;11.00;99.90;;;;;;5051656;28;20029;-68
2021/05/26 06:04:19;;;;;;;5.78;1.52;;;11.00;99.90;;;;;;5051889;28;20029;-71
2021/05/26 06:06:45;;;;;;;5.05;1.67;;;11.10;99.90;;;;;;5051309;28;20485;-69
2021/05/26 06:09:11;;;;;;;4.32;1.48;;;11.00;99.90;;;;;;5051924;28;20045;-69
2021/05/26 06:11:37;;;;;;;5.53;1.80;;;11.10;99.90;;;;;;5036625;28;20038;-70
2021/05/26 06:14:07;;;;;;;5.00;1.60;;;11.10;99.90;;;;;;5030441;28;20124;-68
2021/05/26 06:16:37;;;;;;;5.83;2.00;;;11.00;99.90;;;;;;5030452;28;20401;-68
2021/05/26 06:19:05;;;;;;;5.75;1.70;;;11.10;99.90;;;;;;5032008;28;20123;-68
2021/05/26 06:21:33;;;;;;;6.72;1.88;;;11.10;99.90;;;;;;5029794;28;20037;-68
2021/05/26 06:24:00;;;;;;;7.88;2.10;;;11.10;99.90;;;;;;5030223;28;20030;-69
2021/05/26 06:26:31;;;;;;;7.18;1.33;;;11.10;99.90;;;;;;5031749;28;20036;-68
2021/05/26 06:29:01;;;;;;;5.93;1.73;;;11.10;99.90;;;;;;5042963;28;20041;-69
2021/05/26 06:31:27;;;;;;;3.75;1.30;;;11.10;99.90;;;;;;5053553;28;20843;-69
2021/05/26 06:33:53;;;;;;;5.53;1.40;;;11.10;99.90;;;;;;5055249;28;20025;-69
2021/05/26 06:36:19;;;;;;;5.65;1.60;;;11.10;99.90;;;;;;5053804;28;20477;-69
2021/05/26 06:38:45;;;;;;;7.65;1.75;;;11.10;99.90;;;;;;5053136;28;20063;-70
2021/05/26 06:41:11;;;;;;;4.20;1.42;;;11.10;99.90;;;;;;5054241;28;20039;-70
2021/05/26 06:43:36;;;;;;;9.10;2.10;;;11.10;99.90;;;;;;5053733;28;20608;-70
2021/05/26 06:46:02;;;;;;;3.47;1.23;;;11.10;99.90;;;;;;5054816;28;20384;-69
2021/05/26 06:48:28;;;;;;;5.32;1.65;;;11.10;99.90;;;;;;5053405;28;20536;-69
2021/05/26 06:50:54;;;;;;;4.47;1.35;;;11.10;99.90;;;;;;5054644;28;20124;-68
2021/05/26 06:53:20;;;;;;;3.50;1.13;;;11.10;99.90;;;;;;5069884;28;20025;-69
2021/05/26 06:55:46;;;;;;;5.85;1.25;;;11.10;99.90;;;;;;5054601;28;20077;-69
2021/05/26 06:58:12;;;;;;;5.60;1.25;;;11.10;99.90;;;;;;5046755;28;20033;-69
2021/05/26 07:00:38;;;;;;;6.95;1.65;;;11.10;99.90;;;;;;5034671;28;20044;-69
2021/05/26 07:03:04;;;;;;;4.10;1.30;;;11.10;99.90;;;;;;5033112;28;20485;-70
2021/05/26 07:05:31;;;;;;;5.25;1.50;;;11.10;99.90;;;;;;5033681;28;20439;-70
2021/05/26 07:07:56;;;;;;;3.38;1.10;;;11.10;99.90;;;;;;5034588;28;20048;-70
2021/05/26 07:10:22;;;;;;;3.60;1.40;;;11.10;99.90;;;;;;5034531;28;20033;-69
2021/05/26 07:12:50;;;;;;;2.85;1.00;;;11.10;99.90;;;;;;5034409;28;20056;-69
2021/05/26 07:15:17;;;;;;;6.72;1.50;;;11.10;99.90;;;;;;5034351;28;20029;-69
2021/05/26 07:17:43;;;;;;;8.65;1.63;;;11.10;99.90;;;;;;5034431;28;20059;-69
2021/05/26 07:20:09;;;;;;;5.05;1.58;;;11.10;99.90;;;;;;5034377;28;20477;-69
2021/05/26 07:22:35;;;;;;;2.50;1.23;;;11.10;99.90;;;;;;5033267;28;20041;-69
2021/05/26 07:25:02;;;;;;;4.38;1.52;;;11.10;99.90;;;;;;5034224;28;20367;-69
2021/05/26 07:27:27;;;;;;;4.68;1.23;;;11.10;99.90;;;;;;5033946;28;20041;-69
2021/05/26 07:29:53;;;;;;;6.93;1.55;;;11.10;99.90;;;;;;5032600;28;20091;-69
2021/05/26 07:32:19;;;;;;;5.75;1.83;;;11.10;99.90;;;;;;5016310;28;20037;-69
2021/05/26 07:34:45;;;;;;;8.10;1.45;;;11.10;99.90;;;;;;5032593;28;20135;-69
2021/05/26 07:37:11;;;;;;;6.03;1.52;;;11.10;99.90;;;;;;5031825;28;20103;-69
2021/05/26 07:39:37;;;;;;;4.28;1.90;;;11.20;99.90;;;;;;5034157;28;20099;-69
2021/05/26 07:42:04;;;;;;;3.97;1.42;;;11.10;99.90;;;;;;5033634;28;20033;-69
2021/05/26 07:44:30;;;;;;;3.50;1.65;;;11.10;99.90;;;;;;5032467;28;20410;-69
2021/05/26 07:46:56;;;;;;;5.15;1.80;;;11.10;99.90;;;;;;5033901;28;20033;-68
2021/05/26 07:49:22;;;;;;;9.57;1.90;;;11.10;99.90;;;;;;5032410;28;20030;-69
2021/05/26 07:51:54;;;;;;;5.82;1.58;;;11.10;99.90;;;;;;5032456;28;20428;-69
2021/05/26 07:54:22;;;;;;;4.72;1.67;;;11.10;99.90;;;;;;5032606;28;20083;-69
2021/05/26 07:56:49;;;;;;;3.40;1.50;;;11.00;99.90;;;;;;5032397;28;20397;-69
2021/05/26 07:59:15;;;;;;;2.55;1.33;;;11.00;99.90;;;;;;5047925;28;20086;-71
2021/05/26 08:01:42;;;;;;;4.97;1.45;;;11.00;99.90;;;;;;5069322;28;20448;-69
2021/05/26 08:04:09;;;;;;;5.60;1.90;;;11.10;99.90;;;;;;5048176;28;20052;-69
2021/05/26 08:06:35;;;;;;;3.05;1.38;;;11.30;99.90;;;;;;5032318;28;20041;-69
2021/05/26 08:09:02;;;;;;;4.03;1.50;;;11.40;99.90;;;;;;5031983;28;20104;-69
2021/05/26 08:11:27;;;;;;;4.00;1.30;;;11.40;99.90;;;;;;5032413;28;20041;-69
2021/05/26 08:13:55;;;;;;;5.15;1.77;;;11.50;99.90;;;;;;5033866;28;20096;-68
2021/05/26 08:16:21;;;;;;;6.22;2.10;;;11.60;99.90;;;;;;5034034;28;20121;-69
2021/05/26 08:18:47;;;;;;;6.55;1.65;;;11.60;99.90;;;;;;5034109;28;20124;-68
2021/05/26 08:21:15;;;;;;;5.88;1.83;;;11.60;99.90;;;;;;5033324;28;20041;-69
2021/05/26 08:23:41;;;;;;;7.55;1.88;;;11.50;99.90;;;;;;5031775;28;20033;-69
2021/05/26 08:26:20;;;;;;;5.72;1.20;;;11.50;99.90;;;;;;5032032;28;20034;-69
2021/05/26 08:28:48;;;;;;;3.85;1.30;;;11.60;99.90;;;;;;5028473;28;20045;-69
2021/05/26 08:31:13;;;;;;;6.15;1.50;;;11.50;99.90;;;;;;5052880;28;20029;-69
2021/05/26 08:33:42;;;;;;;5.50;1.42;;;11.50;99.90;;;;;;5051954;28;20041;-69
2021/05/26 08:36:09;;;;;;;3.15;1.38;;;11.40;99.90;;;;;;5052778;28;20352;-70
2021/05/26 08:38:35;;;;;;;5.10;1.30;;;11.50;99.90;;;;;;5052723;28;20451;-69
2021/05/26 08:41:06;;;;;;;9.95;1.65;;;11.50;99.90;;;;;;5051375;28;20037;-68
2021/05/26 08:43:36;;;;;;;7.35;1.38;;;11.40;99.90;;;;;;5051542;28;20029;-70
2021/05/26 08:46:04;;;;;;;3.78;1.20;;;11.40;99.90;;;;;;5051948;28;20037;-73
2021/05/26 08:48:32;;;;;;;3.00;1.40;;;11.50;99.90;;;;;;5052466;28;20357;-69
2021/05/26 08:51:00;;;;;;;5.30;1.10;;;11.40;99.90;;;;;;5051450;28;20044;-69
2021/05/26 08:53:26;;;;;;;5.45;1.50;;;11.30;99.90;;;;;;5051907;28;20033;-69
2021/05/26 08:55:54;;;;;;;5.47;2.15;;;11.30;99.90;;;;;;5051454;28;20021;-69
2021/05/26 08:58:20;;;;;;;3.20;1.45;;;11.40;99.90;;;;;;5044659;28;20033;-69
2021/05/26 09:00:47;;;;;;;3.83;1.42;;;11.30;99.90;;;;;;5032310;28;20377;-69
2021/05/26 09:03:14;;;;;;;5.35;1.90;;;11.30;99.90;;;;;;5031183;28;20030;-69
2021/05/26 09:05:42;;;;;;;3.25;1.33;;;11.30;99.90;;;;;;5032349;28;20036;-69
2021/05/26 09:08:19;;;;;;;3.78;1.23;;;11.30;99.90;;;;;;5032212;28;20041;-69
2021/05/26 09:10:54;;;;;;;5.05;1.45;;;11.30;99.90;;;;;;5031196;28;20041;-69
2021/05/26 09:13:36;;;;;;;3.97;1.20;;;11.40;99.90;;;;;;5031086;28;20500;-69
2021/05/26 09:16:06;;;;;;;4.32;1.30;;;11.40;99.90;;;;;;5030874;28;20041;-69
2021/05/26 09:18:57;;;;;;;4.15;1.38;;;11.50;99.90;;;;;;5015237;28;20029;-69
2021/05/26 09:21:45;;;;;;;7.22;1.25;;;11.50;99.90;;;;;;5032211;28;20041;-69
2021/05/26 09:24:20;;;;;;;4.38;1.20;;;11.50;99.90;;;;;;5032231;28;20037;-69
2021/05/26 09:27:04;;;;;;;2.42;1.00;;;11.50;99.90;;;;;;5032294;28;20408;-69
2021/05/26 09:29:42;;;;;;;5.10;1.40;;;11.50;99.90;;;;;;5031826;28;20444;-69
2021/05/26 09:32:26;;;;;;;8.93;1.50;;;11.50;99.90;;;;;;5031984;28;20037;-69
2021/05/26 09:34:58;;;;;;;5.90;1.30;;;11.40;99.90;;;;;;5031046;28;20037;-69
2021/05/26 09:37:34;;;;;;;5.97;1.10;;;11.40;99.90;;;;;;5028793;28;20749;-70
2021/05/26 09:40:07;;;;;;;5.32;1.00;;;11.60;99.90;;;;;;5030897;28;20363;-69
2021/05/26 09:42:38;;;;;;;2.22;1.00;;;11.60;99.90;;;;;;5029499;28;20512;-70
2021/05/26 09:45:14;;;;;;;2.28;1.00;;;11.70;99.90;;;;;;5028446;28;20087;-69
2021/05/26 09:47:58;;;;;;;5.40;1.30;;;11.80;99.90;;;;;;5029346;28;20474;-69
2021/05/26 09:50:33;;;;;;;3.53;1.02;;;11.90;99.90;;;;;;5028327;28;20100;-69
2021/05/26 09:53:12;;;;;;;4.47;1.08;;;11.90;99.90;;;;;;5030459;28;20022;-69
2021/05/26 09:55:40;;;;;;;4.65;1.23;;;11.80;99.90;;;;;;5030643;28;20116;-68
2021/05/26 09:58:18;;;;;;;4.90;1.20;;;11.90;99.90;;;;;;5029150;28;20033;-69
2021/05/26 10:00:47;;;;;;;6.80;1.77;;;11.90;99.90;;;;;;5027982;28;20060;-68
2021/05/26 10:03:13;;;;;;;4.07;1.05;;;11.90;99.90;;;;;;5031598;28;20037;-68
2021/05/26 10:05:39;;;;;;;2.20;0.85;;;12.00;99.90;;;;;;5034491;28;20040;-69
2021/05/26 10:08:12;;;;;;;3.13;1.00;;;12.00;99.90;;;;;;5035550;28;20037;-69
2021/05/26 10:10:41;;;;;;;2.80;1.05;;;11.90;99.90;;;;;;5018570;28;20056;-70
2021/05/26 10:13:11;;;;;;;5.13;1.50;;;11.80;99.90;;;;;;5035714;28;20235;-70
2021/05/26 10:15:39;;;;;;;3.72;1.08;;;11.80;99.90;;;;;;5038257;28;20033;-69
2021/05/26 10:18:05;;;;;;;5.20;1.17;;;11.90;99.90;;;;;;5034085;28;20627;-69
2021/05/26 10:20:37;;;;;;;4.15;1.10;;;11.90;99.90;;;;;;5033970;28;20029;-70
2021/05/26 10:23:06;;;;;;;4.82;1.25;;;12.00;99.90;;;;;;5035604;28;20030;-69
2021/05/26 10:25:33;;;;;;;2.15;0.77;;;12.00;99.90;;;;;;5034371;28;20030;-70
2021/05/26 10:27:59;;;;;;;4.47;0.82;;;11.90;99.90;;;;;;5038760;28;20041;-68
2021/05/26 10:30:28;;;;;;;2.40;0.90;;;11.90;99.90;;;;;;5054998;28;20133;-68
2021/05/26 10:33:05;;;;;;;4.20;1.00;;;11.80;99.90;;;;;;5054663;28;20028;-72
2021/05/26 10:35:52;;;;;;;4.45;0.98;;;11.90;99.90;;;;;;5037077;28;20039;-68
2021/05/26 10:38:18;;;;;;;3.88;0.88;;;11.80;99.90;;;;;;5054721;28;20487;-69
2021/05/26 10:40:52;;;;;;;3.60;1.52;;;11.70;99.90;;;;;;5053939;28;20033;-69
2021/05/26 10:43:21;;;;;;;5.78;0.90;;;11.60;99.90;;;;;;5053912;28;20546;-71
2021/05/26 10:45:55;;;;;;;2.50;0.90;;;11.60;99.90;;;;;;5054779;28;20504;-68
2021/05/26 10:48:40;;;;;;;3.60;1.23;;;11.60;99.90;;;;;;5054951;28;20033;-68
2021/05/26 10:51:07;;;;;;;3.67;1.00;;;11.60;99.90;;;;;;5054730;28;20033;-69
2021/05/26 10:53:38;;;;;;;6.18;1.08;;;11.60;99.90;;;;;;5070238;28;20457;-69
2021/05/26 10:56:04;;;;;;;2.38;1.13;;;11.60;99.90;;;;;;5054639;28;20044;-69
2021/05/26 10:58:42;;;;;;;3.45;1.05;;;11.50;99.90;;;;;;5045291;28;20386;-69
2021/05/26 11:01:14;;;;;;;2.53;0.88;;;11.50;99.90;;;;;;5033276;28;20052;-69
2021/05/26 11:03:43;;;;;;;1.90;1.00;;;11.60;99.90;;;;;;5033393;28;20512;-69
2021/05/26 11:06:18;;;;;;;2.38;1.00;;;11.60;99.90;;;;;;5033474;28;20035;-69
2021/05/26 11:08:49;;;;;;;1.55;0.98;;;11.50;99.90;;;;;;5034487;28;20057;-69
2021/05/26 11:11:45;;;;;;;2.08;1.02;;;11.40;99.90;;;;;;5033236;28;20072;-69
2021/05/26 11:14:14;;;;;;;2.78;0.90;;;11.40;99.90;;;;;;5034606;28;20042;-69
2021/05/26 11:16:40;;;;;;;2.65;0.95;;;11.50;99.90;;;;;;5034022;28;20390;-69
2021/05/26 11:19:12;;;;;;;2.90;1.17;;;11.60;99.90;;;;;;5034600;28;20064;-69
2021/05/26 11:21:52;;;;;;;2.58;1.00;;;11.40;99.90;;;;;;5034238;28;20033;-69
2021/05/26 11:24:19;;;;;;;4.05;1.08;;;11.40;99.90;;;;;;5033225;28;20037;-69
2021/05/26 11:26:45;;;;;;;2.05;0.90;;;11.40;99.90;;;;;;5034035;28;21108;-69
2021/05/26 11:29:11;;;;;;;4.40;1.30;;;11.40;99.90;;;;;;5047573;28;20040;-69
2021/05/26 11:31:39;;;;;;;2.55;0.95;;;11.40;99.90;;;;;;5052955;28;20037;-69
2021/05/26 11:34:07;;;;;;;2.90;1.00;;;11.40;99.90;;;;;;5054250;28;20504;-69
2021/05/26 11:36:44;;;;;;;7.75;1.67;;;11.50;99.90;;;;;;5054131;28;20044;-69
2021/05/26 11:39:27;;;;;;;5.45;1.63;;;11.50;99.90;;;;;;5053696;28;20510;-69
2021/05/26 11:42:25;;;;;;;2.13;0.85;;;11.50;99.90;;;;;;5052748;28;20033;-69
2021/05/26 11:45:07;;;;;;;2.50;1.08;;;11.60;99.90;;;;;;5048939;28;20099;-69
2021/05/26 11:47:51;;;;;;;3.88;1.05;;;11.60;99.90;;;;;;5052550;28;20033;-69
2021/05/26 11:50:17;;;;;;;3.75;1.40;;;11.70;99.90;;;;;;5053928;28;20487;-69
2021/05/26 11:52:51;;;;;;;4.05;1.20;;;11.80;99.90;;;;;;5053699;28;20112;-70
2021/05/26 11:55:23;;;;;;;4.22;1.05;;;11.90;99.90;;;;;;5053480;28;20118;-70
2021/05/26 11:57:53;;;;;;;3.75;1.10;;;11.90;99.90;;;;;;5049498;28;20561;-69
2021/05/26 12:00:26;;;;;;;3.40;1.00;;;12.00;99.90;;;;;;5033396;28;20041;-69
2021/05/26 12:02:59;;;;;;;2.50;1.10;;;12.10;99.90;;;;;;5032304;28;20501;-69
2021/05/26 12:05:49;;;;;;;3.38;1.25;;;12.10;99.90;;;;;;5032499;28;20087;-69
2021/05/26 12:08:40;;;;;;;2.63;0.98;;;12.20;99.90;;;;;;5032363;28;20124;-69
2021/05/26 12:11:16;;;;;;;3.15;1.08;;;12.30;99.90;;;;;;5011728;28;20045;-69
2021/05/26 12:13:44;;;;;;;2.83;1.15;;;12.20;99.90;;;;;;5028396;28;20433;-69
2021/05/26 12:16:14;;;;;;;4.40;1.33;;;12.20;99.90;;;;;;5013554;28;20088;-69
2021/05/26 12:18:55;;;;;;;2.97;0.98;;;12.20;99.90;;;;;;5028859;28;20033;-69
2021/05/26 12:21:22;;;;;;;;;;;12.30;99.90;;;;;;5013977;28;20077;-69
2021/05/26 12:23:49;;;;;;;2.65;1.02;;;12.30;99.90;;;;;;5013700;28;20004;-69
2021/05/26 12:26:35;;;;;;;2.20;1.20;;;12.40;99.90;;;;;;5013282;28;20112;-69
2021/05/26 12:29:09;;;;;;;6.20;1.30;;;12.30;99.90;;;;;;5039849;28;20044;-69
2021/05/26 12:31:37;;;;;;;3.10;1.08;;;12.40;99.90;;;;;;5051598;28;20059;-68
2021/05/26 12:34:16;;;;;;;3.83;1.25;;;12.50;99.90;;;;;;5052613;28;20362;-69
2021/05/26 12:36:50;;;;;;;4.18;1.20;;;12.50;99.90;;;;;;5051884;28;20112;-69
2021/05/26 12:39:16;;;;;;;1.60;0.93;;;12.60;99.90;;;;;;5052939;28;20029;-69
2021/05/26 12:41:51;;;;;;;2.85;1.10;;;12.90;99.90;;;;;;5051761;28;20079;-69
2021/05/26 12:44:18;;;;;;;3.95;1.27;;;13.10;99.90;;;;;;5052671;28;20427;-69
2021/05/26 12:46:55;;;;;;;2.38;1.00;;;13.00;99.90;;;;;;5051776;28;20207;-69
2021/05/26 12:49:28;;;;;;;4.20;1.13;;;13.00;99.90;;;;;;5052479;28;20111;-69
2021/05/26 12:51:58;;;;;;;2.58;1.17;;;12.90;99.90;;;;;;5052558;28;20029;-69
2021/05/26 12:54:24;;;;;;;1.90;0.90;;;13.00;99.90;;;;;;5052385;28;20028;-68
2021/05/26 12:57:19;;;;;;;3.00;1.05;;;13.00;99.90;;;;;;5051392;28;20083;-70
2021/05/26 12:59:59;;;;;;;4.65;1.20;;;12.90;99.90;;;;;;5031649;28;20469;-69